createdAt,value
2017-11-26T15:29:27.368Z,15.30
2017-11-26T15:29:38.867Z,15.40
2017-11-26T15:29:50.388Z,15.40
2017-11-26T15:30:02.648Z,15.40
2017-11-26T15:30:14.156Z,15.40
2017-11-26T15:30:25.653Z,15.40
2017-11-26T15:30:37.981Z,15.40
2017-11-26T15:30:49.488Z,15.40
2017-11-26T15:31:00.991Z,15.40
2017-11-26T15:31:12.501Z,15.40
2017-11-26T15:31:24.008Z,15.40
2017-11-26T15:31:36.271Z,15.40
2017-11-26T15:31:47.760Z,15.40
2017-11-26T15:32:00.022Z,15.40
2017-11-26T15:32:11.523Z,15.40
2017-11-26T15:32:23.039Z,15.40
2017-11-26T15:32:34.577Z,15.40
2017-11-26T15:32:46.836Z,15.40
2017-11-26T15:32:58.315Z,15.40
2017-11-26T15:33:10.545Z,15.40
2017-11-26T15:33:22.785Z,15.50
2017-11-26T15:33:34.271Z,15.40
2017-11-26T15:33:46.523Z,15.50
2017-11-26T15:34:18.273Z,15.50
2017-11-26T15:34:29.809Z,15.50
2017-11-26T15:34:41.347Z,15.50
2017-11-26T15:34:53.940Z,15.50
2017-11-26T15:35:06.964Z,15.50
2017-11-26T15:35:19.233Z,15.50
2017-11-26T15:35:30.724Z,15.50
2017-11-26T15:35:42.244Z,15.50
2017-11-26T15:35:53.771Z,15.50
2017-11-26T15:36:06.032Z,15.50
2017-11-26T15:36:17.550Z,15.50
2017-11-26T15:36:29.080Z,15.50
2017-11-26T15:36:40.603Z,15.60
2017-11-26T15:36:52.353Z,15.60
2017-11-26T15:37:04.021Z,15.60
2017-11-26T15:37:16.272Z,15.60
2017-11-26T15:37:27.761Z,15.60
2017-11-26T15:37:39.281Z,15.60
2017-11-26T15:37:51.540Z,15.60
2017-11-26T15:38:03.802Z,15.70
2017-11-26T15:38:15.301Z,15.60
2017-11-26T15:38:27.665Z,15.70
2017-11-26T15:38:39.401Z,15.70
2017-11-26T15:38:51.012Z,15.70
2017-11-26T15:39:02.512Z,15.70
2017-11-26T15:39:14.822Z,15.80
2017-11-26T15:39:27.046Z,15.80
2017-11-26T15:39:38.659Z,15.80
2017-11-26T15:39:50.279Z,15.90
2017-11-26T15:40:01.779Z,15.80
2017-11-26T15:40:13.471Z,15.80
2017-11-26T15:40:24.996Z,15.90
2017-11-26T15:40:36.491Z,15.90
2017-11-26T15:40:47.984Z,15.90
2017-11-26T15:41:00.306Z,16.00
2017-11-26T15:41:15.359Z,16.00
2017-11-26T15:41:27.027Z,16.00
2017-11-26T15:41:40.020Z,16.00
2017-11-26T15:41:52.299Z,16.10
2017-11-26T15:42:03.816Z,16.00
2017-11-26T15:42:16.039Z,16.10
2017-11-26T15:42:27.549Z,16.10
2017-11-26T15:42:39.039Z,16.10
2017-11-26T15:42:51.289Z,16.10
2017-11-26T15:43:03.627Z,16.20
2017-11-26T15:43:15.808Z,16.20
2017-11-26T15:43:28.203Z,16.20
2017-11-26T15:43:39.754Z,16.20
2017-11-26T15:43:51.284Z,16.20
2017-11-26T15:44:02.784Z,16.20
2017-11-26T15:44:14.308Z,16.30
2017-11-26T15:44:25.814Z,16.30
2017-11-26T15:44:37.328Z,16.30
2017-11-26T15:44:49.335Z,16.40
2017-11-26T15:45:00.852Z,16.40
2017-11-26T15:45:12.364Z,16.40
2017-11-26T15:45:24.595Z,16.40
2017-11-26T15:45:36.087Z,16.40
2017-11-26T15:45:47.597Z,16.40
2017-11-26T15:45:59.856Z,16.50
2017-11-26T15:46:12.322Z,16.50
2017-11-26T15:46:23.851Z,16.50
2017-11-26T15:46:36.109Z,16.50
2017-11-26T15:46:47.658Z,16.50
2017-11-26T15:46:59.192Z,16.50
2017-11-26T15:47:10.779Z,16.60
2017-11-26T15:47:22.340Z,16.60
2017-11-26T15:47:33.950Z,16.60
2017-11-26T15:47:47.026Z,16.60
2017-11-26T15:47:58.531Z,16.60
2017-11-26T15:48:10.035Z,16.70
2017-11-26T15:48:23.023Z,16.70
2017-11-26T15:48:34.548Z,16.70
2017-11-26T15:48:46.060Z,16.70
2017-11-26T15:48:57.555Z,16.70
2017-11-26T15:49:09.820Z,16.80
2017-11-26T15:49:21.311Z,16.70
2017-11-26T15:49:33.714Z,16.80
2017-11-26T15:49:45.960Z,16.80
2017-11-26T15:49:57.556Z,16.80
2017-11-26T15:50:09.095Z,16.80
2017-11-26T15:50:20.657Z,16.80
2017-11-26T15:50:32.290Z,16.90
2017-11-26T15:50:43.757Z,16.90
2017-11-26T15:50:55.281Z,16.90
2017-11-26T15:51:06.807Z,16.90
2017-11-26T15:51:18.309Z,16.90
2017-11-26T15:51:30.559Z,16.90
2017-11-26T15:51:42.056Z,16.90
2017-11-26T15:51:54.288Z,17.00
2017-11-26T15:52:05.787Z,16.90
2017-11-26T15:52:17.291Z,17.00
2017-11-26T15:52:28.759Z,17.00
2017-11-26T15:52:40.984Z,17.00
2017-11-26T15:52:52.492Z,17.00
2017-11-26T15:53:03.979Z,17.10
2017-11-26T15:53:15.500Z,17.10
2017-11-26T15:53:27.019Z,17.10
2017-11-26T15:53:40.001Z,17.10
2017-11-26T15:53:51.539Z,17.10
2017-11-26T15:54:03.051Z,17.10
2017-11-26T15:54:14.561Z,17.10
2017-11-26T15:54:26.087Z,17.10
2017-11-26T15:54:37.579Z,17.10
2017-11-26T15:54:50.604Z,17.20
2017-11-26T15:55:02.870Z,17.20
2017-11-26T15:55:14.365Z,17.20
2017-11-26T15:55:26.597Z,17.20
2017-11-26T15:55:38.093Z,17.20
2017-11-26T15:55:49.716Z,17.20
2017-11-26T15:56:01.979Z,17.30
2017-11-26T15:56:13.503Z,17.20
2017-11-26T15:56:25.008Z,17.30
2017-11-26T15:56:36.453Z,17.30
2017-11-26T15:56:47.944Z,17.30
2017-11-26T15:56:59.428Z,17.30
2017-11-26T15:57:10.904Z,17.30
2017-11-26T15:57:22.381Z,17.30
2017-11-26T15:57:33.888Z,17.40
2017-11-26T15:57:45.360Z,17.30
2017-11-26T15:57:56.881Z,17.40
2017-11-26T15:58:08.415Z,17.40
2017-11-26T15:58:19.960Z,17.40
2017-11-26T15:58:32.239Z,17.40
2017-11-26T15:58:44.523Z,17.40
2017-11-26T15:58:56.782Z,17.40
2017-11-26T15:59:08.263Z,17.40
2017-11-26T15:59:19.751Z,17.50
2017-11-26T15:59:31.987Z,17.50
2017-11-26T15:59:43.491Z,17.40
2017-11-26T15:59:54.972Z,17.50
2017-11-26T16:00:07.245Z,17.50
2017-11-26T16:00:19.767Z,17.50
2017-11-26T16:00:31.253Z,17.50
2017-11-26T16:00:42.779Z,17.50
2017-11-26T16:00:54.284Z,17.50
2017-11-26T16:01:05.837Z,17.50
2017-11-26T16:01:17.368Z,17.50
2017-11-26T16:01:28.869Z,17.50
2017-11-26T16:01:40.356Z,17.60
2017-11-26T16:01:51.840Z,17.60
2017-11-26T16:02:03.349Z,17.60
2017-11-26T16:02:14.838Z,17.60
2017-11-26T16:02:26.320Z,17.60
2017-11-26T16:02:37.811Z,17.60
2017-11-26T16:02:49.289Z,17.60
2017-11-26T16:03:00.782Z,17.60
2017-11-26T16:03:13.039Z,17.60
2017-11-26T16:03:24.534Z,17.60
2017-11-26T16:03:36.766Z,17.60
2017-11-26T16:03:48.268Z,17.60
2017-11-26T16:03:59.803Z,17.70
2017-11-26T16:04:11.344Z,17.70
2017-11-26T16:04:23.611Z,17.70
2017-11-26T16:04:35.095Z,17.60
2017-11-26T16:04:46.571Z,17.60
2017-11-26T16:04:58.815Z,17.70
2017-11-26T16:05:10.339Z,17.70
2017-11-26T16:05:21.794Z,17.70
2017-11-26T16:05:33.297Z,17.70
2017-11-26T16:05:45.513Z,17.70
2017-11-26T16:05:56.963Z,17.70
2017-11-26T16:06:08.437Z,17.70
2017-11-26T16:06:20.653Z,17.80
2017-11-26T16:06:32.132Z,17.70
2017-11-26T16:06:43.646Z,17.80
2017-11-26T16:06:55.168Z,17.80
2017-11-26T16:07:06.664Z,17.80
2017-11-26T16:07:18.193Z,17.80
2017-11-26T16:07:29.732Z,17.80
2017-11-26T16:07:42.017Z,17.80
2017-11-26T16:07:54.261Z,17.80
2017-11-26T16:08:05.802Z,17.80
2017-11-26T16:08:17.273Z,17.80
2017-11-26T16:08:28.801Z,17.90
2017-11-26T16:08:41.052Z,17.90
2017-11-26T16:08:52.549Z,17.80
2017-11-26T16:09:04.044Z,17.80
2017-11-26T16:09:15.515Z,17.90
2017-11-26T16:09:26.995Z,17.90
2017-11-26T16:09:38.509Z,17.90
2017-11-26T16:09:49.988Z,17.90
2017-11-26T16:10:01.480Z,17.90
2017-11-26T16:10:12.986Z,17.90
2017-11-26T16:10:24.500Z,17.90
2017-11-26T16:10:36.000Z,17.90
2017-11-26T16:10:47.497Z,17.90
2017-11-26T16:10:59.728Z,17.90
2017-11-26T16:11:11.260Z,17.90
2017-11-26T16:11:24.244Z,17.90
2017-11-26T16:11:35.724Z,17.90
2017-11-26T16:11:47.235Z,17.90
2017-11-26T16:11:58.748Z,17.90
2017-11-26T16:12:10.236Z,17.90
2017-11-26T16:12:21.724Z,17.90
2017-11-26T16:12:33.245Z,18.00
2017-11-26T16:12:44.733Z,17.90
2017-11-26T16:12:56.228Z,18.00
2017-11-26T16:13:09.191Z,18.00
2017-11-26T16:13:20.665Z,17.90
2017-11-26T16:13:32.157Z,18.00
2017-11-26T16:13:43.653Z,18.00
2017-11-26T16:13:55.125Z,18.00
2017-11-26T16:14:06.607Z,18.00
2017-11-26T16:14:18.107Z,18.00
2017-11-26T16:14:29.585Z,18.00
2017-11-26T16:14:41.119Z,18.00
2017-11-26T16:14:53.360Z,18.00
2017-11-26T16:15:04.829Z,18.00
2017-11-26T16:15:16.343Z,18.10
2017-11-26T16:15:28.577Z,18.00
2017-11-26T16:15:40.080Z,18.00
2017-11-26T16:15:51.595Z,18.10
2017-11-26T16:16:03.091Z,18.10
2017-11-26T16:16:14.564Z,18.10
2017-11-26T16:16:26.063Z,18.00
2017-11-26T16:16:37.558Z,18.10
2017-11-26T16:16:49.836Z,18.10
2017-11-26T16:17:01.332Z,18.10
2017-11-26T16:17:12.872Z,18.10
2017-11-26T16:17:24.389Z,18.10
2017-11-26T16:17:35.892Z,18.10
2017-11-26T16:17:47.387Z,18.10
2017-11-26T16:17:59.636Z,18.10
2017-11-26T16:18:11.112Z,18.10
2017-11-26T16:18:22.610Z,18.20
2017-11-26T16:18:34.080Z,18.10
2017-11-26T16:18:45.556Z,18.20
2017-11-26T16:18:57.053Z,18.20
2017-11-26T16:19:09.268Z,18.20
2017-11-26T16:19:20.756Z,18.20
2017-11-26T16:19:32.268Z,18.20
2017-11-26T16:19:43.755Z,18.10
2017-11-26T16:19:56.029Z,18.00
2017-11-26T16:20:08.296Z,18.00
2017-11-26T16:20:19.821Z,17.90
2017-11-26T16:20:31.312Z,17.90
2017-11-26T16:20:42.801Z,17.90
2017-11-26T16:20:54.317Z,17.90
2017-11-26T16:21:06.567Z,17.90
2017-11-26T16:21:18.079Z,17.80
2017-11-26T16:21:30.312Z,17.80
2017-11-26T16:21:41.806Z,17.80
2017-11-26T16:21:53.279Z,17.80
2017-11-26T16:22:04.724Z,17.80
2017-11-26T16:22:16.220Z,17.80
2017-11-26T16:22:27.713Z,17.90
2017-11-26T16:22:39.207Z,17.90
2017-11-26T16:22:51.435Z,17.90
2017-11-26T16:23:02.975Z,17.80
2017-11-26T16:23:15.187Z,17.90
2017-11-26T16:23:26.676Z,17.90
2017-11-26T16:23:38.159Z,17.90
2017-11-26T16:23:49.656Z,17.90
2017-11-26T16:24:01.851Z,17.90
2017-11-26T16:24:14.092Z,17.90
2017-11-26T16:24:25.568Z,17.90
2017-11-26T16:24:37.062Z,17.90
2017-11-26T16:24:48.556Z,17.90
2017-11-26T16:25:00.791Z,17.90
2017-11-26T16:25:12.325Z,17.90
2017-11-26T16:25:24.573Z,17.90
2017-11-26T16:25:36.056Z,17.90
2017-11-26T16:25:47.527Z,18.00
2017-11-26T16:25:59.056Z,17.90
2017-11-26T16:26:10.576Z,18.00
2017-11-26T16:26:22.841Z,17.90
2017-11-26T16:26:34.383Z,17.90
2017-11-26T16:26:45.879Z,18.00
2017-11-26T16:26:57.352Z,18.00
2017-11-26T16:27:08.840Z,18.00
2017-11-26T16:27:20.341Z,18.00
2017-11-26T16:27:32.593Z,18.00
2017-11-26T16:27:44.105Z,18.00
2017-11-26T16:27:56.326Z,18.00
2017-11-26T16:28:07.817Z,18.00
2017-11-26T16:28:19.334Z,18.10
2017-11-26T16:28:30.839Z,18.10
2017-11-26T16:28:42.384Z,18.10
2017-11-26T16:28:54.614Z,18.10
2017-11-26T16:29:06.096Z,18.10
2017-11-26T16:29:17.611Z,18.10
2017-11-26T16:29:29.845Z,18.20
2017-11-26T16:29:41.325Z,18.10
2017-11-26T16:29:52.808Z,18.10
2017-11-26T16:30:04.301Z,18.10
2017-11-26T16:30:15.777Z,18.20
2017-11-26T16:30:28.755Z,18.20
2017-11-26T16:30:40.231Z,18.10
2017-11-26T16:30:51.740Z,18.20
2017-11-26T16:31:03.256Z,18.20
2017-11-26T16:31:14.755Z,18.20
2017-11-26T16:31:26.253Z,18.20
2017-11-26T16:31:37.766Z,18.20
2017-11-26T16:31:49.243Z,18.20
2017-11-26T16:32:00.731Z,18.20
2017-11-26T16:32:12.219Z,18.20
2017-11-26T16:32:24.476Z,18.20
2017-11-26T16:32:36.005Z,18.20
2017-11-26T16:32:48.217Z,18.20
2017-11-26T16:32:59.708Z,18.30
2017-11-26T16:33:11.189Z,18.30
2017-11-26T16:33:22.673Z,18.30
2017-11-26T16:33:34.918Z,18.30
2017-11-26T16:33:46.419Z,18.30
2017-11-26T16:33:57.888Z,18.30
2017-11-26T16:34:09.395Z,18.30
2017-11-26T16:34:21.648Z,18.30
2017-11-26T16:34:33.165Z,18.30
2017-11-26T16:34:44.648Z,18.30
2017-11-26T16:34:56.202Z,18.30
2017-11-26T16:35:08.447Z,18.40
2017-11-26T16:35:19.919Z,18.30
2017-11-26T16:35:31.443Z,18.30
2017-11-26T16:35:43.672Z,18.40
2017-11-26T16:35:55.169Z,18.40
2017-11-26T16:36:07.428Z,18.40
2017-11-26T16:36:18.908Z,18.40
2017-11-26T16:36:30.408Z,18.40
2017-11-26T16:36:42.664Z,18.40
2017-11-26T16:36:54.142Z,18.40
2017-11-26T16:37:05.640Z,18.40
2017-11-26T16:37:17.125Z,18.40
2017-11-26T16:37:28.648Z,18.40
2017-11-26T16:37:40.152Z,18.40
2017-11-26T16:37:51.600Z,18.40
2017-11-26T16:38:03.067Z,18.50
2017-11-26T16:38:14.556Z,18.50
2017-11-26T16:38:26.045Z,18.50
2017-11-26T16:38:38.271Z,18.50
2017-11-26T16:38:49.787Z,18.50
2017-11-26T16:39:01.264Z,18.50
2017-11-26T16:39:12.808Z,18.50
2017-11-26T16:39:24.308Z,18.50
2017-11-26T16:39:35.799Z,18.50
2017-11-26T16:39:48.044Z,18.50
2017-11-26T16:39:59.552Z,18.50
2017-11-26T16:40:11.800Z,18.50
2017-11-26T16:40:23.262Z,18.50
2017-11-26T16:40:35.296Z,18.50
2017-11-26T16:40:47.544Z,18.50
2017-11-26T16:40:59.051Z,18.50
2017-11-26T16:41:11.592Z,18.50
2017-11-26T16:41:23.082Z,18.50
2017-11-26T16:41:34.580Z,18.50
2017-11-26T16:41:46.880Z,18.60
2017-11-26T16:41:59.184Z,18.50
2017-11-26T16:42:11.463Z,18.60
2017-11-26T16:42:23.007Z,18.50
2017-11-26T16:42:34.551Z,18.60
2017-11-26T16:42:46.076Z,18.60
2017-11-26T16:42:58.380Z,18.60
2017-11-26T16:43:09.892Z,18.60
2017-11-26T16:43:21.457Z,18.60
2017-11-26T16:43:32.928Z,18.60
2017-11-26T16:43:44.423Z,18.60
2017-11-26T16:43:55.916Z,18.60
2017-11-26T16:44:07.416Z,18.60
2017-11-26T16:44:19.641Z,18.60
2017-11-26T16:44:31.140Z,18.60
2017-11-26T16:44:42.634Z,18.60
2017-11-26T16:44:54.876Z,18.60
2017-11-26T16:45:06.454Z,18.60
2017-11-26T16:45:17.975Z,18.60
2017-11-26T16:45:30.194Z,18.60
2017-11-26T16:45:41.813Z,18.70
2017-11-26T16:45:53.332Z,18.70
2017-11-26T16:46:04.848Z,18.70
2017-11-26T16:46:16.345Z,18.70
2017-11-26T16:46:28.575Z,18.60
2017-11-26T16:46:40.072Z,18.60
2017-11-26T16:46:51.557Z,18.70
2017-11-26T16:47:03.056Z,18.70
2017-11-26T16:47:15.284Z,18.70
2017-11-26T16:47:26.776Z,18.70
2017-11-26T16:47:38.270Z,18.70
2017-11-26T16:47:49.744Z,18.70
2017-11-26T16:48:01.283Z,18.70
2017-11-26T16:48:12.795Z,18.70
2017-11-26T16:48:25.001Z,18.70
2017-11-26T16:48:36.535Z,18.70
2017-11-26T16:48:48.048Z,18.70
2017-11-26T16:49:00.304Z,18.70
2017-11-26T16:49:11.855Z,18.70
2017-11-26T16:49:23.400Z,18.70
2017-11-26T16:49:34.932Z,18.70
2017-11-26T16:49:47.247Z,18.70
2017-11-26T16:49:58.798Z,18.70
2017-11-26T16:50:11.812Z,18.70
2017-11-26T16:50:23.339Z,18.70
2017-11-26T16:50:34.827Z,18.70
2017-11-26T16:50:46.405Z,18.70
2017-11-26T16:50:57.928Z,18.70
2017-11-26T16:51:09.496Z,18.80
2017-11-26T16:51:21.044Z,18.70
2017-11-26T16:51:32.596Z,18.80
2017-11-26T16:51:44.853Z,18.80
2017-11-26T16:51:57.960Z,18.80
2017-11-26T16:52:09.969Z,18.70
2017-11-26T16:52:21.449Z,18.80
2017-11-26T16:52:32.956Z,18.70
2017-11-26T16:52:44.445Z,18.80
2017-11-26T16:52:55.940Z,18.80
2017-11-26T16:53:07.435Z,18.80
2017-11-26T16:53:19.000Z,18.80
2017-11-26T16:53:30.537Z,18.80
2017-11-26T16:53:42.089Z,18.80
2017-11-26T16:53:53.608Z,18.80
2017-11-26T16:54:05.149Z,18.80
2017-11-26T16:54:16.664Z,18.80
2017-11-26T16:54:28.150Z,18.80
2017-11-26T16:54:40.402Z,18.80
2017-11-26T16:54:51.940Z,18.80
2017-11-26T16:55:04.175Z,18.80
2017-11-26T16:55:15.650Z,18.80
2017-11-26T16:55:27.144Z,18.80
2017-11-26T16:55:39.409Z,18.70
2017-11-26T16:55:50.961Z,18.70
2017-11-26T16:56:02.472Z,18.70
2017-11-26T16:56:14.024Z,18.70
2017-11-26T16:56:25.544Z,18.70
2017-11-26T16:56:37.098Z,18.70
2017-11-26T16:56:49.393Z,18.70
2017-11-26T16:57:00.892Z,18.70
2017-11-26T16:57:12.421Z,18.70
2017-11-26T16:57:23.946Z,18.70
2017-11-26T16:57:35.499Z,18.70
2017-11-26T16:57:47.731Z,18.70
2017-11-26T16:57:59.208Z,18.70
2017-11-26T16:58:10.727Z,18.70
2017-11-26T16:58:22.256Z,18.70
2017-11-26T16:58:33.815Z,18.70
2017-11-26T16:58:45.359Z,18.70
2017-11-26T16:58:56.893Z,18.70
2017-11-26T16:59:09.176Z,18.70
2017-11-26T16:59:20.648Z,18.70
2017-11-26T16:59:32.140Z,18.70
2017-11-26T16:59:44.340Z,18.70
2017-11-26T16:59:55.828Z,18.70
2017-11-26T17:00:07.312Z,18.70
2017-11-26T17:00:18.840Z,18.70
2017-11-26T17:00:30.387Z,18.60
2017-11-26T17:00:42.697Z,18.70
2017-11-26T17:00:54.272Z,18.70
2017-11-26T17:01:05.783Z,18.70
2017-11-26T17:01:17.322Z,18.70
2017-11-26T17:01:28.808Z,18.70
2017-11-26T17:01:40.280Z,18.70
2017-11-26T17:01:51.767Z,18.70
2017-11-26T17:02:03.265Z,18.70
2017-11-26T17:02:14.752Z,18.70
2017-11-26T17:02:26.236Z,18.70
2017-11-26T17:02:37.703Z,18.70
2017-11-26T17:02:49.970Z,18.70
2017-11-26T17:03:02.964Z,18.70
2017-11-26T17:03:14.436Z,18.70
2017-11-26T17:03:25.899Z,18.70
2017-11-26T17:03:37.421Z,18.70
2017-11-26T17:03:48.910Z,18.70
2017-11-26T17:04:00.438Z,18.70
2017-11-26T17:04:11.924Z,18.70
2017-11-26T17:04:23.456Z,18.80
2017-11-26T17:04:34.996Z,18.80
2017-11-26T17:04:46.532Z,18.80
2017-11-26T17:04:58.076Z,18.70
2017-11-26T17:05:09.601Z,18.80
2017-11-26T17:05:21.839Z,18.80
2017-11-26T17:05:33.381Z,18.80
2017-11-26T17:05:44.922Z,18.80
2017-11-26T17:05:57.222Z,18.80
2017-11-26T17:06:09.496Z,18.80
2017-11-26T17:06:21.012Z,18.80
2017-11-26T17:06:32.550Z,18.80
2017-11-26T17:06:44.090Z,18.80
2017-11-26T17:06:56.373Z,18.80
2017-11-26T17:07:07.923Z,18.80
2017-11-26T17:07:19.495Z,18.80
2017-11-26T17:07:31.031Z,18.80
2017-11-26T17:07:43.285Z,18.80
2017-11-26T17:07:55.358Z,18.80
2017-11-26T17:08:07.119Z,18.80
2017-11-26T17:08:18.844Z,18.80
2017-11-26T17:08:30.348Z,18.90
2017-11-26T17:08:42.692Z,18.90
2017-11-26T17:08:54.192Z,18.80
2017-11-26T17:09:06.458Z,18.80
2017-11-26T17:09:17.992Z,18.90
2017-11-26T17:09:29.770Z,18.90
2017-11-26T17:09:42.813Z,18.90
2017-11-26T17:09:54.306Z,18.90
2017-11-26T17:10:05.881Z,18.90
2017-11-26T17:10:18.146Z,18.90
2017-11-26T17:10:29.676Z,18.90
2017-11-26T17:10:41.204Z,18.90
2017-11-26T17:10:52.680Z,18.90
2017-11-26T17:11:04.229Z,18.90
2017-11-26T17:11:17.448Z,18.90
2017-11-26T17:11:28.933Z,18.90
2017-11-26T17:11:41.232Z,18.90
2017-11-26T17:11:52.782Z,18.90
2017-11-26T17:12:04.317Z,18.90
2017-11-26T17:12:15.869Z,18.90
2017-11-26T17:12:28.104Z,18.90
2017-11-26T17:12:39.608Z,18.90
2017-11-26T17:12:51.079Z,18.90
2017-11-26T17:13:03.338Z,18.90
2017-11-26T17:13:15.639Z,18.90
2017-11-26T17:13:27.433Z,18.90
2017-11-26T17:13:39.147Z,18.90
2017-11-26T17:13:50.814Z,18.90
2017-11-26T17:14:02.456Z,18.90
2017-11-26T17:14:14.018Z,18.90
2017-11-26T17:14:27.284Z,18.90
2017-11-26T17:14:38.844Z,18.90
2017-11-26T17:14:51.315Z,18.90
2017-11-26T17:15:02.975Z,18.90
2017-11-26T17:15:14.563Z,18.90
2017-11-26T17:15:27.521Z,18.90
2017-11-26T17:15:39.209Z,18.90
2017-11-26T17:15:50.927Z,19.00
2017-11-26T17:16:03.413Z,19.00
2017-11-26T17:16:15.140Z,18.90
2017-11-26T17:16:26.628Z,19.00
2017-11-26T17:16:38.437Z,19.00
2017-11-26T17:16:49.975Z,18.90
2017-11-26T17:17:02.624Z,19.00
2017-11-26T17:17:15.172Z,19.00
2017-11-26T17:17:26.886Z,18.90
2017-11-26T17:17:38.401Z,19.00
2017-11-26T17:17:51.004Z,19.00
2017-11-26T17:18:02.628Z,19.00
2017-11-26T17:18:14.132Z,19.00
2017-11-26T17:18:25.644Z,19.00
2017-11-26T17:18:37.289Z,19.00
2017-11-26T17:18:48.842Z,19.00
2017-11-26T17:19:01.289Z,19.00
2017-11-26T17:19:12.936Z,19.00
2017-11-26T17:19:24.663Z,19.00
2017-11-26T17:19:36.331Z,19.00
2017-11-26T17:19:47.816Z,19.00
2017-11-26T17:19:59.457Z,19.00
2017-11-26T17:20:11.116Z,19.00
2017-11-26T17:20:22.679Z,19.00
2017-11-26T17:20:34.215Z,19.00
2017-11-26T17:20:46.601Z,19.00
2017-11-26T17:20:58.543Z,19.00
2017-11-26T17:21:10.280Z,19.00
2017-11-26T17:21:21.798Z,19.00
2017-11-26T17:21:33.420Z,19.00
2017-11-26T17:21:45.670Z,19.00
2017-11-26T17:21:57.209Z,19.00
2017-11-26T17:22:08.785Z,19.00
2017-11-26T17:22:20.300Z,19.00
2017-11-26T17:22:31.855Z,18.90
2017-11-26T17:22:43.400Z,18.90
2017-11-26T17:22:55.089Z,18.90
2017-11-26T17:23:06.798Z,18.90
2017-11-26T17:23:18.488Z,18.90
2017-11-26T17:23:30.844Z,18.90
2017-11-26T17:23:42.616Z,18.90
2017-11-26T17:23:54.361Z,18.90
2017-11-26T17:24:05.864Z,18.90
2017-11-26T17:24:17.391Z,19.00
2017-11-26T17:24:29.629Z,18.90
2017-11-26T17:24:41.116Z,19.00
2017-11-26T17:24:52.830Z,18.90
2017-11-26T17:25:04.500Z,19.00
2017-11-26T17:25:16.012Z,19.00
2017-11-26T17:25:27.509Z,19.00
2017-11-26T17:25:39.191Z,19.00
2017-11-26T17:25:50.838Z,19.00
2017-11-26T17:26:02.569Z,19.00
2017-11-26T17:26:15.014Z,19.00
2017-11-26T17:26:26.741Z,19.00
2017-11-26T17:26:38.426Z,19.00
2017-11-26T17:26:50.177Z,19.00
2017-11-26T17:27:02.588Z,19.00
2017-11-26T17:27:15.039Z,19.00
2017-11-26T17:27:26.704Z,19.00
2017-11-26T17:27:38.478Z,19.00
2017-11-26T17:27:50.128Z,19.00
2017-11-26T17:28:01.734Z,19.00
2017-11-26T17:28:13.244Z,19.00
2017-11-26T17:28:24.733Z,19.00
2017-11-26T17:28:36.236Z,19.00
2017-11-26T17:28:47.723Z,19.00
2017-11-26T17:28:59.524Z,19.00
2017-11-26T17:29:12.166Z,19.00
2017-11-26T17:29:24.592Z,19.00
2017-11-26T17:29:36.370Z,19.00
2017-11-26T17:29:47.972Z,19.00
2017-11-26T17:29:59.452Z,19.00
2017-11-26T17:30:11.696Z,19.00
2017-11-26T17:30:23.364Z,19.00
2017-11-26T17:30:34.996Z,19.00
2017-11-26T17:30:47.535Z,19.00
2017-11-26T17:30:59.053Z,19.00
2017-11-26T17:31:11.288Z,19.10
2017-11-26T17:31:22.780Z,19.10
2017-11-26T17:31:34.283Z,19.10
2017-11-26T17:31:45.756Z,19.10
2017-11-26T17:31:57.276Z,19.10
2017-11-26T17:32:09.062Z,19.10
2017-11-26T17:32:20.549Z,19.10
2017-11-26T17:32:32.064Z,19.10
2017-11-26T17:32:44.296Z,19.10
2017-11-26T17:32:55.787Z,19.10
2017-11-26T17:33:07.443Z,19.10
2017-11-26T17:33:18.933Z,19.10
2017-11-26T17:33:30.431Z,19.10
2017-11-26T17:33:42.064Z,19.10
2017-11-26T17:33:53.781Z,19.10
2017-11-26T17:34:05.488Z,19.10
2017-11-26T17:34:17.763Z,19.10
2017-11-26T17:34:29.468Z,19.10
2017-11-26T17:34:41.192Z,19.10
2017-11-26T17:34:52.839Z,19.00
2017-11-26T17:35:04.493Z,19.00
2017-11-26T17:35:15.973Z,19.00
2017-11-26T17:35:27.608Z,18.90
2017-11-26T17:35:39.185Z,18.90
2017-11-26T17:35:50.632Z,18.80
2017-11-26T17:36:02.862Z,18.80
2017-11-26T17:36:15.093Z,18.70
2017-11-26T17:36:26.565Z,18.70
2017-11-26T17:36:38.069Z,18.70
2017-11-26T17:36:49.530Z,18.70
2017-11-26T17:37:01.000Z,18.70
2017-11-26T17:37:13.247Z,18.70
2017-11-26T17:37:24.752Z,18.70
2017-11-26T17:37:36.228Z,18.70
2017-11-26T17:37:47.715Z,18.70
2017-11-26T17:37:59.937Z,18.70
2017-11-26T17:38:11.425Z,18.60
2017-11-26T17:38:23.734Z,18.70
2017-11-26T17:38:35.251Z,18.70
2017-11-26T17:38:46.744Z,18.70
2017-11-26T17:38:58.240Z,18.70
2017-11-26T17:39:09.736Z,18.70
2017-11-26T17:39:21.256Z,18.70
2017-11-26T17:39:32.772Z,18.70
2017-11-26T17:39:44.264Z,18.70
2017-11-26T17:39:56.517Z,18.70
2017-11-26T17:40:08.004Z,18.70
2017-11-26T17:40:19.512Z,18.70
2017-11-26T17:40:30.985Z,18.70
2017-11-26T17:40:42.476Z,18.70
2017-11-26T17:40:53.999Z,18.70
2017-11-26T17:41:06.241Z,18.70
2017-11-26T17:41:17.753Z,18.70
2017-11-26T17:41:29.253Z,18.70
2017-11-26T17:41:41.532Z,18.70
2017-11-26T17:41:53.064Z,18.70
2017-11-26T17:42:04.532Z,18.70
2017-11-26T17:42:16.061Z,18.80
2017-11-26T17:42:27.562Z,18.80
2017-11-26T17:42:39.060Z,18.80
2017-11-26T17:42:50.536Z,18.80
2017-11-26T17:43:02.032Z,18.80
2017-11-26T17:43:13.526Z,18.80
2017-11-26T17:43:25.030Z,18.80
2017-11-26T17:43:36.545Z,18.80
2017-11-26T17:43:48.805Z,18.80
2017-11-26T17:44:01.114Z,18.80
2017-11-26T17:44:12.635Z,18.80
2017-11-26T17:44:24.139Z,18.80
2017-11-26T17:44:35.620Z,18.80
2017-11-26T17:44:47.891Z,18.80
2017-11-26T17:44:59.378Z,18.90
2017-11-26T17:45:10.868Z,18.90
2017-11-26T17:45:23.150Z,18.90
2017-11-26T17:45:34.663Z,18.90
2017-11-26T17:45:46.152Z,18.90
2017-11-26T17:45:57.653Z,18.90
2017-11-26T17:46:09.166Z,18.90
2017-11-26T17:46:20.707Z,18.90
2017-11-26T17:46:32.980Z,18.90
2017-11-26T17:46:44.525Z,18.90
2017-11-26T17:46:56.021Z,18.90
2017-11-26T17:47:07.527Z,18.90
2017-11-26T17:47:19.831Z,19.00
2017-11-26T17:47:31.343Z,18.90
2017-11-26T17:47:42.840Z,19.00
2017-11-26T17:47:54.360Z,19.00
2017-11-26T17:48:05.909Z,19.00
2017-11-26T17:48:18.161Z,19.00
2017-11-26T17:48:29.864Z,19.00
2017-11-26T17:48:41.460Z,19.00
2017-11-26T17:48:53.224Z,19.00
2017-11-26T17:49:05.715Z,19.00
2017-11-26T17:49:18.873Z,19.00
2017-11-26T17:49:30.432Z,19.00
2017-11-26T17:49:41.935Z,19.00
2017-11-26T17:49:53.507Z,19.00
2017-11-26T17:50:05.081Z,19.10
2017-11-26T17:50:16.728Z,19.00
2017-11-26T17:50:28.245Z,19.00
2017-11-26T17:50:39.896Z,19.10
2017-11-26T17:50:51.532Z,19.10
2017-11-26T17:51:03.126Z,19.00
2017-11-26T17:51:14.799Z,19.10
2017-11-26T17:51:26.277Z,19.10
2017-11-26T17:51:37.869Z,19.10
2017-11-26T17:51:49.601Z,19.10
2017-11-26T17:52:01.292Z,19.10
2017-11-26T17:52:12.924Z,19.10
2017-11-26T17:52:24.425Z,19.10
2017-11-26T17:52:35.931Z,19.10
2017-11-26T17:52:47.636Z,19.10
2017-11-26T17:52:59.872Z,19.10
2017-11-26T17:53:12.067Z,19.10
2017-11-26T17:53:23.585Z,19.10
2017-11-26T17:53:35.111Z,19.20
2017-11-26T17:53:46.631Z,19.10
2017-11-26T17:53:58.126Z,19.20
2017-11-26T17:54:10.359Z,19.20
2017-11-26T17:54:21.882Z,19.20
2017-11-26T17:54:33.561Z,19.20
2017-11-26T17:54:45.689Z,19.20
2017-11-26T17:54:57.511Z,19.20
2017-11-26T17:55:09.752Z,19.20
2017-11-26T17:55:21.292Z,19.20
2017-11-26T17:55:32.804Z,19.20
2017-11-26T17:55:44.302Z,19.20
2017-11-26T17:55:55.792Z,19.20
2017-11-26T17:56:08.053Z,19.20
2017-11-26T17:56:19.543Z,19.20
2017-11-26T17:56:31.769Z,19.20
2017-11-26T17:56:43.378Z,19.20
2017-11-26T17:56:54.976Z,19.20
2017-11-26T17:57:07.242Z,19.30
2017-11-26T17:57:18.715Z,19.20
2017-11-26T17:57:30.240Z,19.30
2017-11-26T17:57:41.726Z,19.30
2017-11-26T17:57:53.213Z,19.30
2017-11-26T17:58:04.702Z,19.30
2017-11-26T17:58:16.191Z,19.30
2017-11-26T17:58:28.478Z,19.30
2017-11-26T17:58:40.729Z,19.30
2017-11-26T17:58:52.297Z,19.30
2017-11-26T17:59:04.189Z,19.30
2017-11-26T17:59:15.664Z,19.30
2017-11-26T17:59:27.640Z,19.30
2017-11-26T17:59:39.153Z,19.30
2017-11-26T17:59:50.639Z,19.30
2017-11-26T18:00:02.891Z,19.40
2017-11-26T18:00:14.601Z,19.30
2017-11-26T18:00:26.235Z,19.30
2017-11-26T18:00:37.728Z,19.30
2017-11-26T18:00:49.998Z,19.30